Sturgeon Bay, WI (54235)

11:28 PM CST on November 23, 2014 (GMT -0600)
Leif Everson Observatory | Change Station
CLOSE
Current Station
Personal Weather Station
Location: Sturgeon Bay, WI
Elevation: 636 ft
Nearby Weather Stations
Active Advisory: Special Statement

Elev 636 ft 44.83 °N, 87.34 °W | Updated 5 minutes ago

Rain
Rain
45.5 °F
Feels Like 46 °F
N
0.0
Wind Variable Wind from ESE
Gusts 0.0 mph

Today
High -- | Low -- °F
--% Chance of Precip.
Yesterday
High -- | Low -- °F
Precip. -- in
6:57 AM 4:14 PM
Waxing Crescent, 4% visible
Pressure 29.17 in
Visibility 0.8 miles
Clouds Overcast 200 ft
Windchill 46 °F
Dew Point 46 °F
Humidity 100%
Rainfall 0.38 in
Snow Depth Not available.
UV 0.0 out of 12
Pollen .10 out of 12
Air Quality Not available.
Flu Activity Not available.
METAR KSUE 240515Z AUTO 11003KT 3/4SM OVC002 08/07 A2917 RMK AO1

More Conditions Fewer Conditions

Pressure 29.17 in
Visibility 0.8 miles
Clouds Overcast 200 ft
Windchill 46 °F
Dew Point 46 °F
Humidity 100%
Rainfall 0.38 in
Snow Depth Not available.
UV 0.0 out of 12
Pollen .10 out of 12
Air Quality Not available.
Flu Activity Not available.
METAR KSUE 240515Z AUTO 11003KT 3/4SM OVC002 08/07 A2917 RMK AO1

More Conditions Fewer Conditions

10-Day Weather Forecast

Almanac

Astronomy

Nov. 23, 2014 Rise Set
Actual Time
Civil Twilight
Nautical Twilight
Astronomical Twilight
Moon
Length of Visible Light
Length of Day
Tomorrow will be .
, % of the Moon is Illuminated

Today's Extremes

State Highs State Lows

Community

WunderPhotos

Upload Photos

1,773,269 photos uploaded!

WunderBlogs® & News

Nearby

Air Quality

  Air Quality AQ Index Pollutant
Not available.

Snow Depth

Station Depth Elevation

Earthquake Activity

City Distance Mag. Time & Date
Minimum magnitude displayed is 2.5.

Coastal Water Temperatures

Place Temperature

Nearby Weather Stations